Time;durP1;ratioP1;P1;durP2;ratioP2;P2;SDS_P1;SDS_P2;PMS_P1;PMS_P2;Temp;Humidity;BMP_temperature;BMP_pressure;BME280_temperature;BME280_humidity;BME280_pressure;Samples;Min_cycle;Max_cycle;Signal;HPM_P1;HPM_P2
2021/01/17 00:01:15;;;;;;;44.67;19.45;;;;;;;0.31;100.00;100970.91;4993276;28;20054;-52
2021/01/17 00:03:42;;;;;;;45.95;20.63;;;;;;;0.28;100.00;100974.56;4992013;28;20050;-48
2021/01/17 00:06:10;;;;;;;46.53;19.02;;;;;;;0.26;100.00;100978.25;4991682;28;20267;-51
2021/01/17 00:08:38;;;;;;;48.03;20.45;;;;;;;0.23;100.00;100976.66;4987105;28;20053;-52
2021/01/17 00:11:05;;;;;;;45.63;19.45;;;;;;;0.30;100.00;100975.34;4987727;28;20050;-53
2021/01/17 00:13:32;;;;;;;46.85;20.90;;;;;;;0.37;100.00;100962.69;4990263;28;20054;-51
2021/01/17 00:15:59;;;;;;;44.95;22.23;;;;;;;0.40;100.00;100964.25;4989344;28;20046;-50
2021/01/17 00:18:27;;;;;;;55.20;20.85;;;;;;;0.30;100.00;100958.75;4991322;28;20269;-51
2021/01/17 00:21:07;;;;;;;47.75;20.70;;;;;;;0.36;100.00;100968.03;4990165;28;20078;-49
2021/01/17 00:23:36;;;;;;;47.53;20.48;;;;;;;0.31;100.00;100952.53;4988526;28;20041;-50
2021/01/17 00:26:03;;;;;;;55.47;22.95;;;;;;;0.40;100.00;100948.47;4991185;28;20330;-49
2021/01/17 00:28:30;;;;;;;48.38;21.30;;;;;;;0.36;100.00;100949.63;4987196;28;20093;-50
2021/01/17 00:30:57;;;;;;;47.83;21.48;;;;;;;0.32;100.00;100947.16;4992565;28;20041;-49
2021/01/17 00:33:24;;;;;;;51.25;22.00;;;;;;;0.40;100.00;100932.72;4989816;28;20054;-53
2021/01/17 00:35:53;;;;;;;71.47;27.60;;;;;;;0.47;100.00;100934.06;4995993;28;20053;-49
2021/01/17 00:38:21;;;;;;;51.63;22.20;;;;;;;0.56;100.00;100928.22;4987905;28;20049;-52
2021/01/17 00:40:47;;;;;;;80.60;29.08;;;;;;;0.47;100.00;100921.75;4986597;28;20346;-52
2021/01/17 00:43:17;;;;;;;72.07;26.00;;;;;;;0.58;100.00;100915.84;4991805;28;20046;-52
2021/01/17 00:45:44;;;;;;;62.15;24.75;;;;;;;0.63;100.00;100913.75;4987539;28;20050;-52
2021/01/17 00:48:11;;;;;;;65.28;26.02;;;;;;;0.67;100.00;100915.25;4991477;28;20078;-47
2021/01/17 00:50:38;;;;;;;64.03;23.48;;;;;;;0.63;100.00;100919.00;4989740;28;20046;-49
2021/01/17 00:53:06;;;;;;;65.50;26.77;;;;;;;0.67;100.00;100919.66;4989172;28;20042;-48
2021/01/17 00:55:33;;;;;;;73.47;26.92;;;;;;;0.68;100.00;100914.31;4987845;28;20330;-50
2021/01/17 00:58:00;;;;;;;65.93;25.92;;;;;;;0.76;100.00;100916.44;4990206;28;20462;-45
2021/01/17 01:00:28;;;;;;;74.53;29.23;;;;;;;0.59;100.00;100919.31;4987344;28;20437;-44
2021/01/17 01:02:55;;;;;;;77.00;28.08;;;;;;;0.60;100.00;100913.09;4988823;28;20338;-45
2021/01/17 01:05:24;;;;;;;60.25;23.98;;;;;;;0.70;100.00;100927.34;4992024;28;20442;-46
2021/01/17 01:07:52;;;;;;;87.13;28.02;;;;;;;0.67;100.00;100914.41;4978803;28;20051;-47
2021/01/17 01:10:20;;;;;;;72.35;26.35;;;;;;;0.55;100.00;100917.81;4989344;28;20341;-45
2021/01/17 01:12:47;;;;;;;82.05;32.70;;;;;;;0.57;100.00;100929.03;4986862;28;20046;-51
2021/01/17 01:15:14;;;;;;;91.03;32.72;;;;;;;0.61;100.00;100934.03;4992591;28;20377;-47
2021/01/17 01:17:41;;;;;;;150.65;46.15;;;;;;;0.50;100.00;100928.59;4988173;28;20350;-51
2021/01/17 01:20:10;;;;;;;202.82;54.88;;;;;;;0.55;100.00;100944.91;4986527;28;20137;-47
2021/01/17 01:22:40;;;;;;;158.40;50.90;;;;;;;0.58;100.00;100939.50;4986438;28;20443;-44
2021/01/17 01:25:09;;;;;;;192.70;52.05;;;;;;;0.78;100.00;100945.25;4981413;28;20335;-51
2021/01/17 01:27:38;;;;;;;110.47;40.40;;;;;;;0.81;100.00;100940.66;4989954;28;20052;-50
2021/01/17 01:30:06;;;;;;;258.80;64.47;;;;;;;0.79;100.00;100954.84;4988982;28;20050;-46
2021/01/17 01:32:33;;;;;;;170.15;53.55;;;;;;;0.94;100.00;100948.63;4986641;28;20046;-48
2021/01/17 01:35:00;;;;;;;187.35;55.50;;;;;;;1.09;100.00;100948.56;4988099;28;20186;-47
2021/01/17 01:37:27;;;;;;;309.45;80.78;;;;;;;1.08;100.00;100955.63;4983229;28;20050;-49
2021/01/17 01:39:53;;;;;;;467.48;115.72;;;;;;;1.06;100.00;100956.66;4989884;28;20066;-48
2021/01/17 01:42:20;;;;;;;323.80;79.40;;;;;;;1.22;100.00;100956.53;4988007;28;20050;-49
2021/01/17 01:44:48;;;;;;;365.98;92.00;;;;;;;1.29;100.00;100958.69;4993356;28;20295;-48
2021/01/17 01:47:22;;;;;;;333.55;82.97;;;;;;;1.32;100.00;100962.91;4991097;28;20145;-45
2021/01/17 01:49:49;;;;;;;265.80;72.38;;;;;;;1.33;100.00;100952.28;4985218;28;20077;-50
2021/01/17 01:52:16;;;;;;;356.02;92.18;;;;;;;1.32;100.00;100950.56;4992496;28;20053;-47
2021/01/17 01:54:43;;;;;;;436.95;110.00;;;;;;;1.37;100.00;100956.34;4983028;28;20050;-45
2021/01/17 01:57:11;;;;;;;340.98;91.88;;;;;;;1.43;100.00;100955.13;4982347;28;20345;-49
2021/01/17 01:59:38;;;;;;;519.05;127.82;;;;;;;1.43;100.00;100959.53;4994326;28;20112;-47
2021/01/17 02:02:09;;;;;;;144.13;48.78;;;;;;;1.45;100.00;100952.41;4987191;28;20047;-50
2021/01/17 02:04:39;;;;;;;435.70;108.85;;;;;;;1.26;100.00;100955.38;4986638;28;20046;-49
2021/01/17 02:07:28;;;;;;;317.55;86.20;;;;;;;1.47;100.00;100956.59;4987078;28;20144;-50
2021/01/17 02:09:55;;;;;;;168.18;51.50;;;;;;;1.52;100.00;100953.69;4989892;28;20442;-49
2021/01/17 02:12:27;;;;;;;152.45;49.55;;;;;;;1.71;100.00;100950.66;4988467;28;20057;-47
2021/01/17 02:14:58;;;;;;;314.33;81.40;;;;;;;1.61;100.00;100950.44;4987919;28;20052;-47
2021/01/17 02:17:30;;;;;;;127.82;44.15;;;;;;;1.78;100.00;100951.13;4989555;28;20049;-47
2021/01/17 02:20:09;;;;;;;175.32;56.50;;;;;;;1.69;100.00;100949.94;4986406;28;20050;-48
2021/01/17 02:22:41;;;;;;;173.68;52.10;;;;;;;1.72;100.00;100949.72;4990267;28;20481;-49
2021/01/17 02:25:10;;;;;;;137.07;46.92;;;;;;;1.79;100.00;100952.81;4988965;28;20052;-45
2021/01/17 02:27:37;;;;;;;179.85;54.88;;;;;;;1.75;100.00;100948.69;4986596;28;20438;-48
2021/01/17 02:30:08;;;;;;;156.38;51.33;;;;;;;1.79;100.00;100958.06;4986753;28;20038;-48
2021/01/17 02:32:38;;;;;;;158.88;51.72;;;;;;;1.85;100.00;100950.59;4985383;28;20042;-48
2021/01/17 02:35:06;;;;;;;286.02;75.82;;;;;;;1.70;100.00;100949.84;4991985;28;20129;-49
2021/01/17 02:37:39;;;;;;;126.78;40.97;;;;;;;1.95;100.00;100945.53;4982711;28;20042;-47
2021/01/17 02:40:09;;;;;;;106.43;40.92;;;;;;;1.96;100.00;100941.13;4982300;28;20069;-49
2021/01/17 02:42:37;;;;;;;116.30;42.60;;;;;;;2.05;100.00;100946.59;4987848;28;20037;-48
2021/01/17 02:45:06;;;;;;;124.18;45.28;;;;;;;1.99;100.00;100947.03;4986963;28;20045;-49
2021/01/17 02:47:33;;;;;;;128.65;48.15;;;;;;;2.06;100.00;100956.19;4989082;28;20053;-48
2021/01/17 02:50:04;;;;;;;104.15;40.15;;;;;;;2.16;100.00;100953.78;4987077;28;20046;-49
2021/01/17 02:52:38;;;;;;;102.55;39.58;;;;;;;2.15;100.00;100961.78;4991874;28;20050;-48
2021/01/17 02:55:06;;;;;;;95.45;38.47;;;;;;;2.13;100.00;100963.69;4986422;28;20061;-47
2021/01/17 02:57:35;;;;;;;99.93;33.00;;;;;;;2.28;100.00;100967.06;4981444;28;20050;-49
2021/01/17 03:00:05;;;;;;;81.90;32.53;;;;;;;2.32;100.00;100972.00;4991617;28;20430;-46
2021/01/17 03:02:34;;;;;;;89.80;34.03;;;;;;;2.26;100.00;100961.88;4988054;28;20046;-50
2021/01/17 03:05:04;;;;;;;91.50;35.60;;;;;;;2.15;100.00;100967.06;4991848;28;20042;-47
2021/01/17 03:07:34;;;;;;;93.53;36.28;;;;;;;2.18;100.00;100969.47;4984474;28;20038;-44
2021/01/17 03:10:03;;;;;;;90.93;36.70;;;;;;;2.36;100.00;100962.94;4986611;28;20065;-45
2021/01/17 03:12:30;;;;;;;92.35;34.90;;;;;;;2.29;100.00;100966.13;4985241;28;20057;-47
2021/01/17 03:15:01;;;;;;;83.28;32.75;;;;;;;2.33;100.00;100965.78;4987500;28;20220;-45
2021/01/17 03:17:28;;;;;;;86.45;32.80;;;;;;;2.55;100.00;100974.84;4986603;28;20380;-48
2021/01/17 03:19:55;;;;;;;78.78;31.33;;;;;;;2.36;100.00;100976.13;4990186;28;20075;-44
2021/01/17 03:22:22;;;;;;;86.82;32.10;;;;;;;2.25;100.00;100983.91;4987071;28;20430;-50
2021/01/17 03:24:48;;;;;;;81.93;32.85;;;;;;;2.26;100.00;100975.06;4984860;28;20649;-47
2021/01/17 03:27:16;;;;;;;88.15;33.63;;;;;;;2.33;100.00;100980.78;4983531;28;20069;-44
2021/01/17 03:29:43;;;;;;;73.05;31.02;;;;;;;2.29;100.00;100985.41;4988164;28;20046;-45
2021/01/17 03:32:12;;;;;;;83.20;28.65;;;;;;;2.44;100.00;100980.00;4987176;28;20051;-47
2021/01/17 03:34:39;;;;;;;86.68;31.20;;;;;;;2.30;100.00;100976.56;4986746;28;20414;-48
2021/01/17 03:37:06;;;;;;;76.55;29.90;;;;;;;2.31;100.00;100978.25;4981036;28;20046;-46
2021/01/17 03:39:33;;;;;;;68.13;28.52;;;;;;;2.27;100.00;100982.03;4991936;28;20043;-47
2021/01/17 03:42:00;;;;;;;83.10;29.58;;;;;;;2.18;100.00;100982.66;4990989;28;20053;-46
2021/01/17 03:44:27;;;;;;;114.40;37.55;;;;;;;2.26;100.00;100984.78;4990195;28;20038;-47
2021/01/17 03:46:53;;;;;;;89.28;34.85;;;;;;;2.37;100.00;100976.97;4987810;28;20050;-45
2021/01/17 03:49:21;;;;;;;95.05;33.28;;;;;;;2.29;100.00;100977.50;4985085;28;20046;-44
2021/01/17 03:51:51;;;;;;;80.35;31.80;;;;;;;2.24;100.00;100974.34;4988095;28;20053;-47
2021/01/17 03:54:18;;;;;;;83.70;30.17;;;;;;;2.20;100.00;100981.59;4984170;28;20434;-45
2021/01/17 03:56:46;;;;;;;89.97;31.27;;;;;;;2.13;100.00;100968.97;4976103;28;20039;-45
2021/01/17 03:59:15;;;;;;;89.38;30.88;;;;;;;2.05;100.00;100980.00;4988962;28;20468;-46
2021/01/17 04:01:41;;;;;;;74.57;27.17;;;;;;;2.03;100.00;100980.13;4980333;28;20307;-47
2021/01/17 04:04:09;;;;;;;68.35;27.58;;;;;;;2.07;100.00;100986.03;4989680;28;20050;-45
2021/01/17 04:06:37;;;;;;;62.72;26.40;;;;;;;2.03;100.00;100984.56;4987649;28;20038;-46
2021/01/17 04:09:04;;;;;;;70.00;27.08;;;;;;;2.03;100.00;100988.03;4991166;28;20053;-47
2021/01/17 04:11:31;;;;;;;78.57;27.75;;;;;;;2.02;100.00;100994.22;4984616;28;20042;-47
2021/01/17 04:13:58;;;;;;;62.85;22.60;;;;;;;2.13;100.00;100985.59;4984095;28;20054;-43
2021/01/17 04:16:25;;;;;;;62.30;23.17;;;;;;;2.19;100.00;100992.25;4976704;28;20054;-44
2021/01/17 04:18:53;;;;;;;68.68;26.65;;;;;;;2.06;100.00;100990.44;4986867;28;20054;-44
2021/01/17 04:21:20;;;;;;;56.90;23.55;;;;;;;2.10;100.00;100992.88;4977286;28;20043;-47
2021/01/17 04:23:48;;;;;;;65.72;25.42;;;;;;;2.12;100.00;100998.88;4982903;28;20046;-45
2021/01/17 04:26:17;;;;;;;50.08;20.63;;;;;;;2.23;100.00;100996.38;4979633;28;20438;-49
2021/01/17 04:28:45;;;;;;;54.63;22.42;;;;;;;2.11;100.00;101002.47;4981557;28;20046;-43
2021/01/17 04:31:13;;;;;;;52.00;21.45;;;;;;;2.27;100.00;101002.25;4990139;28;20058;-50
2021/01/17 04:33:40;;;;;;;56.45;21.83;;;;;;;2.18;100.00;101004.59;4988810;28;20465;-48
2021/01/17 04:36:08;;;;;;;53.22;20.90;;;;;;;2.06;100.00;101003.63;4989409;28;20363;-50
2021/01/17 04:38:35;;;;;;;49.15;20.80;;;;;;;2.10;100.00;101008.66;4981576;28;20052;-47
2021/01/17 04:41:04;;;;;;;58.25;20.58;;;;;;;2.18;100.00;101009.00;4988989;28;20331;-47
2021/01/17 04:43:34;;;;;;;42.70;18.13;;;;;;;2.08;100.00;101011.41;4990741;28;20378;-49
2021/01/17 04:46:03;;;;;;;37.42;17.48;;;;;;;2.14;100.00;101012.78;4979729;28;20053;-46
2021/01/17 04:48:32;;;;;;;49.42;20.23;;;;;;;2.16;100.00;101009.09;4987052;28;20059;-47
2021/01/17 04:51:01;;;;;;;44.33;16.80;;;;;;;2.13;100.00;101016.41;4981893;28;20347;-46
2021/01/17 04:53:30;;;;;;;39.47;14.73;;;;;;;2.17;100.00;101010.81;4985008;28;20043;-45
2021/01/17 04:56:10;;;;;;;42.00;15.05;;;;;;;2.17;100.00;101008.16;4989222;28;20043;-47
2021/01/17 04:58:39;;;;;;;34.25;15.20;;;;;;;2.17;100.00;101005.53;4975165;28;20050;-44
2021/01/17 05:01:22;;;;;;;30.77;15.88;;;;;;;2.17;100.00;101015.22;4988198;28;20042;-46
2021/01/17 05:03:53;;;;;;;41.15;18.70;;;;;;;2.11;100.00;101008.56;4987252;28;20527;-45
2021/01/17 05:06:26;;;;;;;39.33;16.58;;;;;;;2.18;100.00;101019.53;4976469;28;20039;-44
2021/01/17 05:09:02;;;;;;;38.15;14.52;;;;;;;2.25;100.00;101020.81;4987027;28;20378;-48
2021/01/17 05:11:35;;;;;;;44.42;15.35;;;;;;;2.22;100.00;101026.28;4989071;28;20426;-47
2021/01/17 05:14:09;;;;;;;30.02;13.95;;;;;;;2.28;100.00;101035.56;4988571;28;20050;-44
2021/01/17 05:16:39;;;;;;;35.40;14.07;;;;;;;2.23;100.00;101030.63;4983171;28;20046;-47
2021/01/17 05:19:11;;;;;;;31.20;12.85;;;;;;;2.23;100.00;101034.09;4986674;28;20047;-47
2021/01/17 05:21:39;;;;;;;33.50;12.68;;;;;;;2.25;100.00;101031.34;4984058;28;20039;-43
2021/01/17 05:24:10;;;;;;;40.25;14.05;;;;;;;2.20;100.00;101036.13;4985904;28;20051;-43
2021/01/17 05:26:41;;;;;;;31.92;11.95;;;;;;;2.25;100.00;101036.63;4987660;28;20050;-46
2021/01/17 05:29:09;;;;;;;33.15;12.85;;;;;;;2.32;100.00;101029.97;4984193;28;20133;-44
2021/01/17 05:31:36;;;;;;;32.00;14.05;;;;;;;2.29;100.00;101035.47;4987369;28;20038;-43
2021/01/17 05:34:03;;;;;;;31.95;10.95;;;;;;;2.21;100.00;101035.13;4981740;28;20347;-46
2021/01/17 05:36:30;;;;;;;32.30;12.52;;;;;;;2.33;100.00;101033.50;4987157;28;20034;-50
2021/01/17 05:39:04;;;;;;;29.88;9.85;;;;;;;2.20;100.00;101038.75;4993019;28;20057;-50
2021/01/17 05:41:31;;;;;;;30.80;12.68;;;;;;;2.29;100.00;101042.53;4982378;28;20034;-46
2021/01/17 05:43:59;;;;;;;27.90;10.05;;;;;;;2.30;100.00;101038.97;4993924;28;20334;-51
2021/01/17 05:46:26;;;;;;;29.55;12.02;;;;;;;2.29;100.00;101048.66;4983757;28;20396;-48
2021/01/17 05:49:09;;;;;;;31.67;10.75;;;;;;;2.23;100.00;101036.72;4992944;28;20124;-43
2021/01/17 05:51:36;;;;;;;27.45;10.18;;;;;;;2.31;100.00;101041.50;4988592;28;20042;-49
2021/01/17 05:54:08;;;;;;;23.42;8.90;;;;;;;2.35;100.00;101039.47;4986247;28;20045;-46
2021/01/17 05:56:36;;;;;;;29.33;10.07;;;;;;;2.27;100.00;101045.28;4985439;28;20055;-44
2021/01/17 05:59:04;;;;;;;32.42;9.85;;;;;;;2.47;100.00;101053.63;4986493;28;20046;-49
2021/01/17 06:01:33;;;;;;;26.00;9.30;;;;;;;2.40;100.00;101051.41;4988718;28;20046;-48
2021/01/17 06:04:09;;;;;;;26.88;8.23;;;;;;;2.46;100.00;101057.22;4986795;28;20590;-50
2021/01/17 06:06:37;;;;;;;24.17;8.25;;;;;;;2.44;100.00;101062.59;4988421;28;20049;-48
2021/01/17 06:09:05;;;;;;;31.17;9.15;;;;;;;2.41;100.00;101057.53;4993630;28;20053;-51
2021/01/17 06:11:32;;;;;;;28.90;8.35;;;;;;;2.49;100.00;101064.91;4986502;28;20331;-51
2021/01/17 06:14:00;;;;;;;17.15;7.40;;;;;;;2.55;100.00;101067.13;4984726;28;20050;-48
2021/01/17 06:16:31;;;;;;;28.25;8.85;;;;;;;2.44;100.00;101067.88;4981432;28;20053;-48
2021/01/17 06:19:01;;;;;;;26.30;8.93;;;;;;;2.47;100.00;101072.09;4980618;28;20050;-50
2021/01/17 06:21:29;;;;;;;21.17;7.35;;;;;;;2.41;100.00;101068.91;4988672;28;20057;-47
2021/01/17 06:23:57;;;;;;;23.20;7.70;;;;;;;2.36;100.00;101073.63;4991830;28;20049;-45
2021/01/17 06:26:29;;;;;;;32.30;8.98;;;;;;;2.27;100.00;101071.63;4987766;28;20045;-47
2021/01/17 06:28:56;;;;;;;31.75;8.32;;;;;;;2.33;100.00;101080.94;4983935;28;20050;-45
2021/01/17 06:31:27;;;;;;;44.22;11.15;;;;;;;2.43;100.00;101083.78;4993414;28;20045;-44
2021/01/17 06:34:06;;;;;;;26.75;8.98;;;;;;;2.36;100.00;101089.47;4987126;28;20046;-45
2021/01/17 06:36:34;;;;;;;26.98;8.23;;;;;;;2.31;100.00;101081.03;4976145;28;20046;-48
2021/01/17 06:39:05;;;;;;;20.05;7.57;;;;;;;2.36;100.00;101093.91;4989981;28;20485;-48
2021/01/17 06:41:38;;;;;;;24.10;7.25;;;;;;;2.33;100.00;101089.66;4978508;28;20046;-46
2021/01/17 06:44:10;;;;;;;23.63;8.65;;;;;;;2.37;100.00;101090.31;4978156;28;20038;-45
2021/01/17 06:46:38;;;;;;;19.88;7.07;;;;;;;2.28;100.00;101094.38;4987041;28;20046;-45
2021/01/17 06:49:20;;;;;;;24.08;9.18;;;;;;;2.31;100.00;101099.47;4987662;28;20046;-48
2021/01/17 06:51:47;;;;;;;27.48;8.48;;;;;;;2.23;100.00;101101.78;4984675;28;20130;-47
2021/01/17 06:54:16;;;;;;;18.58;7.38;;;;;;;2.25;100.00;101099.88;4984741;28;20435;-47
2021/01/17 06:56:44;;;;;;;21.13;8.30;;;;;;;2.23;100.00;101105.25;4978549;28;20442;-43
2021/01/17 06:59:11;;;;;;;33.17;9.82;;;;;;;2.10;100.00;101111.44;4984546;28;20050;-46
2021/01/17 07:01:42;;;;;;;25.00;9.38;;;;;;;2.22;100.00;101116.72;4985745;28;20328;-45
2021/01/17 07:04:34;;;;;;;25.45;8.27;;;;;;;2.26;100.00;101101.56;4990638;28;20169;-46
2021/01/17 07:07:17;;;;;;;27.83;7.90;;;;;;;2.14;100.00;101110.28;4981465;28;20046;-45
2021/01/17 07:09:48;;;;;;;30.13;7.35;;;;;;;2.19;100.00;101113.47;4987708;28;20050;-46
2021/01/17 07:12:25;;;;;;;24.05;8.20;;;;;;;2.15;100.00;101109.34;4986627;28;20049;-50
2021/01/17 07:15:00;;;;;;;24.90;8.43;;;;;;;2.27;100.00;101105.03;4985322;28;20427;-50
2021/01/17 07:17:32;;;;;;;20.25;7.10;;;;;;;2.30;100.00;101104.88;4987426;28;20042;-47
2021/01/17 07:20:03;;;;;;;22.80;7.72;;;;;;;2.24;100.00;101119.28;4986147;28;20050;-48
2021/01/17 07:22:32;;;;;;;34.75;9.13;;;;;;;2.35;100.00;101124.69;4986690;28;20039;-43
2021/01/17 07:25:00;;;;;;;25.38;7.93;;;;;;;2.27;100.00;101129.63;4987510;28;20049;-46
2021/01/17 07:28:02;;;;;;;24.50;7.05;;;;;;;2.27;100.00;101123.50;4983997;28;20315;-46
2021/01/17 07:30:40;;;;;;;26.02;7.57;;;;;;;2.31;100.00;101124.97;4985318;28;20042;-48
2021/01/17 07:33:08;;;;;;;25.80;8.18;;;;;;;2.28;100.00;101135.72;4987016;28;20431;-48
2021/01/17 07:35:40;;;;;;;22.27;8.57;;;;;;;2.23;100.00;101139.50;4988450;28;20030;-47
2021/01/17 07:38:11;;;;;;;24.98;7.70;;;;;;;2.17;100.00;101144.34;4985408;28;20481;-47
2021/01/17 07:40:50;;;;;;;19.98;7.70;;;;;;;2.21;100.00;101156.38;4981158;28;20050;-46
2021/01/17 07:43:18;;;;;;;29.65;6.35;;;;;;;2.27;100.00;101152.47;4987048;28;20046;-43
2021/01/17 07:45:48;;;;;;;29.00;6.88;;;;;;;2.31;100.00;101162.75;4970632;28;20053;-47
2021/01/17 07:48:16;;;;;;;20.58;8.60;;;;;;;2.55;100.00;101160.25;4990561;28;20042;-48
2021/01/17 07:50:46;;;;;;;27.70;7.38;;;;;;;2.44;100.00;101165.41;4984998;28;20269;-46
2021/01/17 07:53:52;;;;;;;23.95;6.20;;;;;;;2.38;100.00;101168.44;4982915;28;20039;-45
2021/01/17 07:56:27;;;;;;;25.08;7.60;;;;;;;2.35;100.00;101174.78;4927331;29;20039;-46
2021/01/17 07:58:57;;;;;;;16.58;5.72;;;;;;;2.35;100.00;101176.53;4924206;29;20388;-47
2021/01/17 08:01:42;;;;;;;23.00;6.78;;;;;;;2.39;100.00;101184.16;4961301;28;20065;-47
2021/01/17 08:04:27;;;;;;;22.48;7.13;;;;;;;2.31;100.00;101185.59;4987081;28;20217;-47
2021/01/17 08:06:58;;;;;;;26.83;7.93;;;;;;;2.29;100.00;101188.34;4981985;28;20043;-45
2021/01/17 08:09:45;;;;;;;18.67;5.38;;;;;;;2.34;100.00;101191.53;4984816;28;20081;-46
2021/01/17 08:12:33;;;;;;;18.90;6.20;;;;;;;2.47;100.00;101193.38;4983283;28;20050;-47
2021/01/17 08:15:17;;;;;;;24.10;6.25;;;;;;;2.35;100.00;101198.50;4983727;28;20634;-47
2021/01/17 08:17:44;;;;;;;19.70;6.40;;;;;;;2.45;100.00;101206.63;4981496;28;20053;-49
2021/01/17 08:20:21;;;;;;;24.00;6.72;;;;;;;2.22;100.00;101214.25;4985392;28;20050;-46
2021/01/17 08:22:49;;;;;;;21.10;7.50;;;;;;;2.34;100.00;101211.75;4988727;28;20293;-46
2021/01/17 08:25:46;;;;;;;20.23;7.28;;;;;;;2.49;100.00;101221.28;4987620;28;20039;-45
2021/01/17 08:28:41;;;;;;;25.70;7.95;;;;;;;2.44;100.00;101217.28;4982122;28;20050;-47
2021/01/17 08:31:40;;;;;;;22.10;6.57;;;;;;;2.23;100.00;101233.56;4989873;28;20449;-47
2021/01/17 08:34:13;;;;;;;28.88;7.97;;;;;;;2.39;100.00;101233.41;4970837;28;20449;-50
2021/01/17 08:36:41;;;;;;;24.80;9.13;;;;;;;2.33;100.00;101237.28;4983548;28;20058;-46
2021/01/17 08:39:10;;;;;;;19.98;6.43;;;;;;;2.46;100.00;101245.22;4987361;28;20038;-48
2021/01/17 08:41:44;;;;;;;19.63;7.50;;;;;;;2.40;100.00;101251.75;4984502;28;20105;-46
2021/01/17 08:44:13;;;;;;;17.73;7.65;;;;;;;2.51;100.00;101250.19;4984551;28;20051;-49
2021/01/17 08:46:41;;;;;;;22.00;7.00;;;;;;;2.62;100.00;101255.63;4986465;28;20114;-47
2021/01/17 08:49:09;;;;;;;17.73;7.40;;;;;;;2.73;100.00;101253.13;4990082;28;20039;-48
2021/01/17 08:51:37;;;;;;;16.77;7.40;;;;;;;2.70;100.00;101253.31;4986699;28;20177;-46
2021/01/17 08:54:28;;;;;;;22.65;8.07;;;;;;;2.72;100.00;101250.56;4993031;28;20054;-44
2021/01/17 08:56:56;;;;;;;16.95;7.28;;;;;;;2.67;100.00;101256.16;4984773;28;20049;-48
2021/01/17 08:59:34;;;;;;;29.00;9.57;;;;;;;2.78;100.00;101259.88;4988488;28;20035;-48
2021/01/17 09:02:01;;;;;;;19.95;7.28;;;;;;;2.90;100.00;101262.53;4988598;28;20052;-47
2021/01/17 09:04:29;;;;;;;21.38;6.97;;;;;;;2.90;100.00;101261.72;4989538;28;20045;-49
2021/01/17 09:06:57;;;;;;;28.88;7.22;;;;;;;3.00;100.00;101259.31;4982759;28;20478;-48
2021/01/17 09:09:25;;;;;;;21.42;6.25;;;;;;;3.18;100.00;101270.41;4991023;28;20050;-45
2021/01/17 09:11:52;;;;;;;15.95;5.63;;;;;;;3.06;100.00;101262.38;4986672;28;20035;-45
2021/01/17 09:14:23;;;;;;;23.35;7.93;;;;;;;3.03;100.00;101272.28;4986156;28;20054;-47
2021/01/17 09:16:52;;;;;;;20.23;6.03;;;;;;;3.34;100.00;101262.28;4985973;28;20046;-49
2021/01/17 09:19:21;;;;;;;22.83;6.43;;;;;;;3.39;100.00;101268.13;4988927;28;20078;-49
2021/01/17 09:21:51;;;;;;;12.60;6.32;;;;;;;3.22;100.00;101278.03;4984161;28;20042;-49
2021/01/17 09:24:21;;;;;;;17.58;5.20;;;;;;;3.26;100.00;101291.84;4986600;28;20043;-44
2021/01/17 09:26:52;;;;;;;22.90;9.13;;;;;;;3.30;100.00;101293.31;4986465;28;20046;-49
2021/01/17 09:29:29;;;;;;;20.58;7.10;;;;;;;3.26;100.00;101297.13;4985690;28;20041;-48
2021/01/17 09:31:59;;;;;;;19.52;7.15;;;;;;;3.29;100.00;101302.22;4990776;28;20055;-47
2021/01/17 09:34:29;;;;;;;19.45;5.72;;;;;;;3.28;100.00;101300.50;4985851;28;20275;-49
2021/01/17 09:36:57;;;;;;;22.60;5.57;;;;;;;3.07;100.00;101311.56;4990627;28;20061;-50
2021/01/17 09:39:26;;;;;;;23.20;7.30;;;;;;;3.31;100.00;101320.59;4991946;28;20051;-49
2021/01/17 09:41:54;;;;;;;17.70;7.13;;;;;;;3.27;100.00;101325.22;4986491;28;20042;-45
2021/01/17 09:44:21;;;;;;;23.95;7.82;;;;;;;3.54;100.00;101337.50;4988373;28;20400;-50
2021/01/17 09:46:48;;;;;;;19.90;6.50;;;;;;;3.52;100.00;101342.06;4984617;28;20055;-49
2021/01/17 09:49:15;;;;;;;19.48;6.97;;;;;;;3.53;100.00;101341.94;4987866;28;20050;-50
2021/01/17 09:51:46;;;;;;;19.50;7.13;;;;;;;3.52;100.00;101347.34;4988798;28;20717;-48
2021/01/17 09:54:13;;;;;;;19.75;7.32;;;;;;;3.74;100.00;101344.06;4987376;28;20326;-45
2021/01/17 09:56:41;;;;;;;20.08;6.18;;;;;;;3.88;100.00;101357.16;4986457;28;20054;-50
2021/01/17 09:59:14;;;;;;;14.90;5.65;;;;;;;3.88;100.00;101353.69;4986328;28;20443;-51
2021/01/17 10:01:42;;;;;;;20.20;5.55;;;;;;;4.09;100.00;101360.09;4988356;28;20061;-51
2021/01/17 10:04:23;;;;;;;16.63;6.50;;;;;;;4.38;100.00;101367.78;4988289;28;20313;-50
2021/01/17 10:06:52;;;;;;;12.57;5.45;;;;;;;4.55;100.00;101373.66;4979766;28;20065;-51
2021/01/17 10:09:20;;;;;;;22.10;6.43;;;;;;;4.36;100.00;101377.63;4985714;28;20053;-50
2021/01/17 10:11:53;;;;;;;15.27;5.50;;;;;;;4.39;100.00;101377.38;4984185;28;20050;-49
2021/01/17 10:14:25;;;;;;;17.65;6.78;;;;;;;4.43;100.00;101389.44;4985540;28;20046;-52
2021/01/17 10:16:53;;;;;;;17.20;7.00;;;;;;;4.61;100.00;101378.53;4982428;28;20739;-51
2021/01/17 10:19:27;;;;;;;19.08;6.72;;;;;;;4.47;99.71;101384.78;4983248;28;20046;-47
2021/01/17 10:21:56;;;;;;;12.18;5.82;;;;;;;4.58;99.88;101391.94;4981033;28;20062;-46
2021/01/17 10:24:27;;;;;;;22.38;6.53;;;;;;;4.60;99.49;101408.56;4984777;28;20050;-48
2021/01/17 10:26:56;;;;;;;18.20;6.78;;;;;;;4.50;99.25;101410.19;4979574;28;20038;-48
2021/01/17 10:29:25;;;;;;;22.05;6.70;;;;;;;4.38;99.92;101412.75;4987009;28;20063;-49
2021/01/17 10:31:57;;;;;;;28.58;8.45;;;;;;;4.41;99.87;101412.53;4986070;28;20050;-49
2021/01/17 10:34:25;;;;;;;22.88;6.80;;;;;;;4.44;99.97;101420.25;4986314;28;20046;-53
2021/01/17 10:36:58;;;;;;;16.73;6.78;;;;;;;4.38;99.67;101412.75;4983592;28;20054;-52
2021/01/17 10:39:26;;;;;;;28.48;7.15;;;;;;;4.47;100.00;101422.66;4984992;28;20052;-50
2021/01/17 10:42:01;;;;;;;18.42;5.50;;;;;;;4.46;99.92;101428.91;4985678;28;20051;-51
2021/01/17 10:44:30;;;;;;;22.33;6.53;;;;;;;4.58;100.00;101428.97;4985526;28;20035;-52
2021/01/17 10:47:08;;;;;;;19.73;7.30;;;;;;;4.43;99.43;101426.47;4982022;28;20058;-50
2021/01/17 10:49:38;;;;;;;14.88;5.78;;;;;;;4.57;99.04;101435.25;4986108;28;20269;-51
2021/01/17 10:52:21;;;;;;;17.65;6.55;;;;;;;4.64;98.82;101437.34;4983435;28;20050;-52
2021/01/17 10:54:48;;;;;;;24.83;6.78;;;;;;;4.69;98.27;101426.41;4981626;28;20047;-52
2021/01/17 10:57:17;;;;;;;20.17;6.32;;;;;;;4.77;98.82;101432.00;4986044;28;20049;-52
2021/01/17 10:59:45;;;;;;;19.15;7.10;;;;;;;4.99;97.69;101425.19;4986275;28;20058;-52
2021/01/17 11:02:21;;;;;;;17.65;7.00;;;;;;;5.03;97.60;101439.03;4985529;28;20038;-48
2021/01/17 11:04:48;;;;;;;;;;;;;;;4.95;97.25;101439.59;4984050;28;20093;-52
2021/01/17 11:07:18;;;;;;;22.58;6.82;;;;;;;5.01;96.74;101441.78;4984757;28;19930;-52
2021/01/17 11:09:45;;;;;;;31.25;7.88;;;;;;;4.95;97.33;101431.66;4985730;28;20258;-50
2021/01/17 11:12:12;;;;;;;20.88;7.80;;;;;;;5.06;97.02;101438.78;4986878;28;20050;-50
2021/01/17 11:14:39;;;;;;;21.40;6.60;;;;;;;5.27;96.12;101439.03;4985800;28;20038;-53
2021/01/17 11:17:09;;;;;;;24.67;7.25;;;;;;;5.11;95.87;101447.25;4974633;28;20050;-50
2021/01/17 11:19:38;;;;;;;18.77;7.75;;;;;;;5.13;95.50;101448.84;4980325;28;20046;-48
2021/01/17 11:22:06;;;;;;;15.95;6.90;;;;;;;4.98;95.94;101448.16;4971842;28;20043;-48
2021/01/17 11:24:37;;;;;;;17.40;5.88;;;;;;;5.27;95.76;101454.91;4983840;28;20046;-51
2021/01/17 11:27:12;;;;;;;22.50;8.13;;;;;;;5.39;95.63;101461.97;4972683;28;20038;-51